Time;durP1;ratioP1;P1;durP2;ratioP2;P2;SDS_P1;SDS_P2;PMS_P1;PMS_P2;Temp;Humidity;BMP_temperature;BMP_pressure;BME280_temperature;BME280_humidity;BME280_pressure;Samples;Min_cycle;Max_cycle;Signal;HPM_P1;HPM_P2
2024/03/04 00:00:00;;;;;;;42.93;27.03;;;;;;;;;;702713;28;930;-62
2024/03/04 00:00:20;;;;;;;44.33;26.88;;;;;;;;;;703067;28;872;-62
2024/03/04 00:00:41;;;;;;;44.33;26.87;;;;;;;;;;701407;28;1007;-62
2024/03/04 00:01:03;;;;;;;44.63;26.37;;;;;;;;;;701213;28;908;-62
2024/03/04 00:01:23;;;;;;;43.00;26.63;;;;;;;;;;702091;28;1092;-62
2024/03/04 00:01:44;;;;;;;44.93;27.47;;;;;;;;;;701154;28;4351;-61
2024/03/04 00:02:09;;;;;;;43.60;26.77;;;;;;;;;;702301;28;1090;-62
2024/03/04 00:02:31;;;;;;;41.80;26.50;;;;;;;;;;701219;28;2420;-62
2024/03/04 00:02:51;;;;;;;41.30;26.52;;;;;;;;;;701919;28;1192;-62
2024/03/04 00:03:12;;;;;;;43.13;26.73;;;;;;;;;;702450;28;955;-62
2024/03/04 00:03:33;;;;;;;44.40;26.33;;;;;;;;;;700589;28;2342;-62
2024/03/04 00:03:53;;;;;;;44.30;27.00;;;;;;;;;;702525;28;792;-62
2024/03/04 00:04:13;;;;;;;41.60;26.57;;;;;;;;;;702244;28;1048;-62
2024/03/04 00:04:33;;;;;;;40.63;26.13;;;;;;;;;;699843;28;4451;-61
2024/03/04 00:04:53;;;;;;;42.27;26.13;;;;;;;;;;701084;28;872;-62
2024/03/04 00:05:14;;;;;;;43.47;26.75;;;;;;;;;;703043;28;834;-62
2024/03/04 00:05:35;;;;;;;43.07;27.13;;;;;;;;;;701397;28;2364;-62
2024/03/04 00:05:55;;;;;;;42.33;26.70;;;;;;;;;;701970;28;1065;-62
2024/03/04 00:06:17;;;;;;;42.78;26.52;;;;;;;;;;703000;28;1334;-62
2024/03/04 00:06:37;;;;;;;43.58;26.98;;;;;;;;;;700206;28;1473;-62
2024/03/04 00:06:58;;;;;;;43.27;26.37;;;;;;;;;;701305;28;931;-62
2024/03/04 00:07:18;;;;;;;45.15;25.77;;;;;;;;;;703239;28;1318;-62
2024/03/04 00:07:38;;;;;;;43.60;26.00;;;;;;;;;;700630;28;4607;-62
2024/03/04 00:07:58;;;;;;;44.80;26.80;;;;;;;;;;703126;28;1013;-61
2024/03/04 00:08:19;;;;;;;44.17;27.00;;;;;;;;;;703399;28;1259;-62
2024/03/04 00:08:39;;;;;;;42.93;26.07;;;;;;;;;;701980;28;2242;-62
2024/03/04 00:09:00;;;;;;;42.53;25.25;;;;;;;;;;702922;28;872;-62
2024/03/04 00:09:20;;;;;;;41.83;25.13;;;;;;;;;;701068;28;1049;-63
2024/03/04 00:09:41;;;;;;;42.67;26.33;;;;;;;;;;700805;28;1909;-62
2024/03/04 00:10:02;;;;;;;44.97;26.75;;;;;;;;;;702669;28;965;-62
2024/03/04 00:10:22;;;;;;;43.95;26.20;;;;;;;;;;702441;28;967;-62
2024/03/04 00:10:43;;;;;;;41.87;26.17;;;;;;;;;;700140;28;4379;-63
2024/03/04 00:11:03;;;;;;;42.88;25.83;;;;;;;;;;701646;28;1382;-63
2024/03/04 00:11:24;;;;;;;44.43;26.93;;;;;;;;;;702100;28;943;-63
2024/03/04 00:11:44;;;;;;;42.35;26.17;;;;;;;;;;700255;28;2132;-62
2024/03/04 00:12:05;;;;;;;41.70;26.47;;;;;;;;;;702368;28;1087;-63
2024/03/04 00:12:25;;;;;;;41.65;26.27;;;;;;;;;;700798;28;2058;-63
2024/03/04 00:12:46;;;;;;;42.35;26.58;;;;;;;;;;702427;28;951;-64
2024/03/04 00:13:06;;;;;;;41.70;24.90;;;;;;;;;;702325;28;798;-63
2024/03/04 00:13:26;;;;;;;43.23;25.47;;;;;;;;;;701509;28;2306;-62
2024/03/04 00:13:47;;;;;;;42.95;25.42;;;;;;;;;;703946;27;4313;-63
2024/03/04 00:14:09;;;;;;;41.97;25.83;;;;;;;;;;703021;28;1096;-63
2024/03/04 00:14:29;;;;;;;43.85;26.05;;;;;;;;;;701527;28;975;-63
2024/03/04 00:14:50;;;;;;;43.00;25.43;;;;;;;;;;701573;28;975;-63
2024/03/04 00:15:10;;;;;;;41.67;25.00;;;;;;;;;;701493;28;1057;-63
2024/03/04 00:15:30;;;;;;;44.38;25.95;;;;;;;;;;700320;28;2101;-63
2024/03/04 00:15:52;;;;;;;46.43;26.63;;;;;;;;;;702189;28;1107;-63
2024/03/04 00:16:13;;;;;;;42.83;26.27;;;;;;;;;;703020;28;1188;-63
2024/03/04 00:16:33;;;;;;;44.60;26.40;;;;;;;;;;699993;27;4393;-62
2024/03/04 00:16:53;;;;;;;46.05;26.77;;;;;;;;;;702950;28;1066;-63
2024/03/04 00:17:14;;;;;;;42.50;26.53;;;;;;;;;;703427;28;863;-63
2024/03/04 00:17:35;;;;;;;43.92;26.10;;;;;;;;;;701576;28;2356;-64
2024/03/04 00:17:55;;;;;;;42.70;24.58;;;;;;;;;;702540;28;990;-64
2024/03/04 00:18:16;;;;;;;41.93;25.10;;;;;;;;;;703140;28;1439;-62
2024/03/04 00:18:36;;;;;;;42.37;25.70;;;;;;;;;;700635;28;2561;-64
2024/03/04 00:18:57;;;;;;;43.43;26.07;;;;;;;;;;702809;28;1277;-63
2024/03/04 00:19:18;;;;;;;43.63;25.63;;;;;;;;;;701913;28;947;-63
2024/03/04 00:19:38;;;;;;;44.43;26.20;;;;;;;;;;698687;28;4393;-63
2024/03/04 00:19:59;;;;;;;44.97;26.45;;;;;;;;;;701033;28;1083;-63
2024/03/04 00:20:19;;;;;;;44.73;26.40;;;;;;;;;;702240;28;1204;-63
2024/03/04 00:20:39;;;;;;;46.83;26.57;;;;;;;;;;700164;28;1966;-62
2024/03/04 00:20:59;;;;;;;43.55;26.13;;;;;;;;;;702731;28;896;-63
2024/03/04 00:21:20;;;;;;;43.57;26.20;;;;;;;;;;702890;28;952;-62
2024/03/04 00:21:40;;;;;;;43.20;25.67;;;;;;;;;;700210;28;2266;-63
2024/03/04 00:22:00;;;;;;;42.93;25.87;;;;;;;;;;701877;28;1265;-63
2024/03/04 00:22:20;;;;;;;45.05;25.90;;;;;;;;;;703160;28;884;-62
2024/03/04 00:22:45;;;;;;;44.50;26.23;;;;;;;;;;700788;28;4369;-63
2024/03/04 00:23:05;;;;;;;42.88;25.80;;;;;;;;;;702786;28;1176;-63
2024/03/04 00:23:25;;;;;;;43.35;25.73;;;;;;;;;;701958;28;947;-63
2024/03/04 00:23:45;;;;;;;44.57;25.63;;;;;;;;;;701620;28;961;-64
2024/03/04 00:24:06;;;;;;;45.17;26.37;;;;;;;;;;703322;28;1290;-64
2024/03/04 00:24:26;;;;;;;43.95;25.95;;;;;;;;;;700356;28;956;-62
2024/03/04 00:24:46;;;;;;;42.33;24.30;;;;;;;;;;703324;28;946;-63
2024/03/04 00:25:07;;;;;;;42.13;25.00;;;;;;;;;;703304;28;857;-64
2024/03/04 00:25:27;;;;;;;44.72;26.38;;;;;;;;;;701585;28;1214;-63
2024/03/04 00:25:47;;;;;;;43.93;25.43;;;;;;;;;;702500;28;4351;-61
2024/03/04 00:26:08;;;;;;;41.63;25.05;;;;;;;;;;702672;28;1192;-63
2024/03/04 00:26:28;;;;;;;41.00;25.10;;;;;;;;;;701419;28;1583;-62
2024/03/04 00:26:48;;;;;;;43.30;25.67;;;;;;;;;;703122;28;1130;-64
2024/03/04 00:27:08;;;;;;;43.60;25.50;;;;;;;;;;702516;28;1017;-64
2024/03/04 00:27:29;;;;;;;43.90;26.03;;;;;;;;;;701750;27;1949;-64
2024/03/04 00:27:49;;;;;;;44.83;26.50;;;;;;;;;;702696;28;916;-63
2024/03/04 00:28:09;;;;;;;43.67;26.50;;;;;;;;;;703138;28;981;-62
2024/03/04 00:28:29;;;;;;;45.40;27.15;;;;;;;;;;701217;28;1895;-62
2024/03/04 00:28:50;;;;;;;44.07;26.30;;;;;;;;;;703221;28;4635;-63
2024/03/04 00:29:10;;;;;;;45.63;26.33;;;;;;;;;;702531;28;908;-62
2024/03/04 00:29:30;;;;;;;43.13;25.10;;;;;;;;;;700851;28;2092;-63
2024/03/04 00:29:50;;;;;;;43.13;26.03;;;;;;;;;;702079;28;825;-63
2024/03/04 00:30:11;;;;;;;45.17;26.93;;;;;;;;;;703381;28;1037;-62
2024/03/04 00:30:31;;;;;;;45.70;26.35;;;;;;;;;;701727;28;1850;-62
2024/03/04 00:30:52;;;;;;;45.20;26.47;;;;;;;;;;702385;28;1041;-62
2024/03/04 00:31:12;;;;;;;44.63;25.70;;;;;;;;;;702350;28;943;-62
2024/03/04 00:31:32;;;;;;;43.57;25.70;;;;;;;;;;700761;28;4399;-63
2024/03/04 00:31:53;;;;;;;43.07;25.90;;;;;;;;;;702580;28;1034;-62
2024/03/04 00:32:13;;;;;;;42.17;26.30;;;;;;;;;;701615;28;1184;-62
2024/03/04 00:32:34;;;;;;;41.75;25.13;;;;;;;;;;700964;28;1842;-63
2024/03/04 00:32:54;;;;;;;44.63;26.53;;;;;;;;;;701935;28;975;-62
2024/03/04 00:33:14;;;;;;;45.43;26.13;;;;;;;;;;701847;28;1071;-62
2024/03/04 00:33:36;;;;;;;44.67;25.87;;;;;;;;;;702058;28;2616;-62
2024/03/04 00:33:57;;;;;;;45.65;26.63;;;;;;;;;;703147;28;978;-62
2024/03/04 00:34:17;;;;;;;44.25;25.48;;;;;;;;;;702453;28;790;-62
2024/03/04 00:34:38;;;;;;;43.23;25.40;;;;;;;;;;700941;27;4310;-59
2024/03/04 00:34:58;;;;;;;43.40;25.95;;;;;;;;;;703000;28;1131;-61
2024/03/04 00:35:19;;;;;;;43.77;25.30;;;;;;;;;;703554;28;885;-62
2024/03/04 00:35:39;;;;;;;43.40;25.80;;;;;;;;;;701003;28;1731;-64
2024/03/04 00:36:04;;;;;;;43.37;25.50;;;;;;;;;;702712;28;1143;-62
2024/03/04 00:36:26;;;;;;;42.08;24.65;;;;;;;;;;702516;28;1076;-62
2024/03/04 00:36:46;;;;;;;42.30;25.25;;;;;;;;;;702739;28;1026;-61
2024/03/04 00:37:07;;;;;;;42.87;25.40;;;;;;;;;;702916;28;947;-61
2024/03/04 00:37:27;;;;;;;43.17;25.50;;;;;;;;;;699223;28;2870;-61
2024/03/04 00:37:47;;;;;;;42.40;25.88;;;;;;;;;;700209;28;4466;-62
2024/03/04 00:38:07;;;;;;;41.40;25.37;;;;;;;;;;700473;28;1091;-61
2024/03/04 00:38:28;;;;;;;41.33;25.33;;;;;;;;;;698845;28;2390;-61
2024/03/04 00:38:48;;;;;;;44.08;26.08;;;;;;;;;;699490;28;1925;-62
2024/03/04 00:39:09;;;;;;;43.37;25.73;;;;;;;;;;696412;28;1343;-61
2024/03/04 00:39:29;;;;;;;45.53;26.27;;;;;;;;;;697677;28;2317;-62
2024/03/04 00:39:50;;;;;;;44.20;26.45;;;;;;;;;;698628;28;1139;-62
2024/03/04 00:40:12;;;;;;;41.97;25.17;;;;;;;;;;699760;28;1116;-61
2024/03/04 00:40:32;;;;;;;41.97;25.35;;;;;;;;;;698923;28;4556;-64
2024/03/04 00:40:53;;;;;;;42.95;25.58;;;;;;;;;;702342;28;1362;-62
2024/03/04 00:41:13;;;;;;;42.05;25.38;;;;;;;;;;701745;28;1010;-61
2024/03/04 00:41:34;;;;;;;42.93;25.00;;;;;;;;;;701719;28;2436;-62
2024/03/04 00:41:54;;;;;;;43.80;25.13;;;;;;;;;;702535;28;876;-62
2024/03/04 00:42:14;;;;;;;42.87;25.73;;;;;;;;;;702814;28;1204;-63
2024/03/04 00:42:37;;;;;;;42.92;25.30;;;;;;;;;;701467;28;2331;-61
2024/03/04 00:42:57;;;;;;;40.85;24.45;;;;;;;;;;703661;27;1082;-62
2024/03/04 00:43:17;;;;;;;41.27;24.63;;;;;;;;;;702647;28;839;-61
2024/03/04 00:43:38;;;;;;;42.30;25.53;;;;;;;;;;699970;28;4862;-62
2024/03/04 00:43:58;;;;;;;43.57;25.93;;;;;;;;;;701525;28;1124;-62
2024/03/04 00:44:20;;;;;;;45.20;25.85;;;;;;;;;;703125;28;1136;-62
2024/03/04 00:44:40;;;;;;;44.03;25.52;;;;;;;;;;700888;28;2328;-62
2024/03/04 00:45:00;;;;;;;43.63;25.70;;;;;;;;;;700835;28;915;-62
2024/03/04 00:45:22;;;;;;;43.30;25.27;;;;;;;;;;700173;28;951;-62
2024/03/04 00:45:42;;;;;;;43.13;24.65;;;;;;;;;;698532;28;2414;-63
2024/03/04 00:46:02;;;;;;;40.97;24.40;;;;;;;;;;703142;28;1140;-63
2024/03/04 00:46:23;;;;;;;44.07;25.23;;;;;;;;;;703827;28;757;-61
2024/03/04 00:46:43;;;;;;;43.80;25.40;;;;;;;;;;701134;28;4369;-62
2024/03/04 00:47:03;;;;;;;42.77;25.03;;;;;;;;;;701765;28;903;-62
2024/03/04 00:47:23;;;;;;;42.43;24.97;;;;;;;;;;702225;28;844;-62
2024/03/04 00:47:44;;;;;;;40.33;23.63;;;;;;;;;;701169;28;1201;-63
2024/03/04 00:48:04;;;;;;;40.00;23.73;;;;;;;;;;702277;28;1026;-63
2024/03/04 00:48:25;;;;;;;42.13;25.27;;;;;;;;;;702630;28;821;-63
2024/03/04 00:48:45;;;;;;;41.87;25.03;;;;;;;;;;701178;28;1864;-64
2024/03/04 00:49:06;;;;;;;42.65;24.65;;;;;;;;;;701406;28;864;-62
2024/03/04 00:49:26;;;;;;;41.77;24.03;;;;;;;;;;701795;28;1109;-62
2024/03/04 00:49:46;;;;;;;39.78;23.65;;;;;;;;;;700417;27;4511;-62
2024/03/04 00:50:08;;;;;;;44.27;24.97;;;;;;;;;;702034;28;982;-62
2024/03/04 00:50:30;;;;;;;42.72;24.80;;;;;;;;;;701232;28;2186;-61
2024/03/04 00:50:50;;;;;;;42.63;24.90;;;;;;;;;;701499;27;1070;-62
2024/03/04 00:51:14;;;;;;;42.70;24.65;;;;;;;;;;702491;27;892;-61
2024/03/04 00:51:36;;;;;;;42.05;24.50;;;;;;;;;;699145;28;1239;-64
2024/03/04 00:51:56;;;;;;;42.85;24.95;;;;;;;;;;695716;28;799;-63
2024/03/04 00:52:17;;;;;;;42.63;24.83;;;;;;;;;;694723;28;975;-61
2024/03/04 00:52:37;;;;;;;43.38;25.40;;;;;;;;;;691950;28;4537;-62
2024/03/04 00:52:58;;;;;;;43.22;24.88;;;;;;;;;;692567;28;913;-62
2024/03/04 00:53:18;;;;;;;42.10;24.97;;;;;;;;;;692349;28;4975;-62
2024/03/04 00:53:39;;;;;;;41.80;25.20;;;;;;;;;;697106;28;3392;-62
2024/03/04 00:53:59;;;;;;;44.93;25.87;;;;;;;;;;700792;28;983;-62
2024/03/04 00:54:20;;;;;;;41.20;24.38;;;;;;;;;;700776;28;840;-62
2024/03/04 00:54:40;;;;;;;40.30;24.03;;;;;;;;;;699283;28;1909;-62
2024/03/04 00:55:00;;;;;;;41.07;24.90;;;;;;;;;;700867;28;861;-62
2024/03/04 00:55:21;;;;;;;40.78;25.27;;;;;;;;;;701026;28;860;-62
2024/03/04 00:55:41;;;;;;;41.17;24.67;;;;;;;;;;698406;28;4723;-62
2024/03/04 00:56:03;;;;;;;42.07;24.53;;;;;;;;;;699816;28;946;-63
2024/03/04 00:56:23;;;;;;;41.55;24.75;;;;;;;;;;699487;28;963;-62
2024/03/04 00:56:43;;;;;;;42.83;24.27;;;;;;;;;;699273;28;2362;-62
2024/03/04 00:57:07;;;;;;;44.33;25.17;;;;;;;;;;698883;28;840;-63
2024/03/04 00:57:27;;;;;;;43.88;25.13;;;;;;;;;;699153;28;1253;-62
2024/03/04 00:57:47;;;;;;;42.88;25.10;;;;;;;;;;698903;28;1927;-62
2024/03/04 00:58:07;;;;;;;41.60;24.07;;;;;;;;;;699149;28;967;-62
2024/03/04 00:58:28;;;;;;;42.17;25.20;;;;;;;;;;699279;28;1874;-61
2024/03/04 00:58:49;;;;;;;42.45;24.95;;;;;;;;;;699566;28;4394;-62
2024/03/04 00:59:09;;;;;;;41.50;24.57;;;;;;;;;;699719;28;941;-62
2024/03/04 00:59:30;;;;;;;44.60;25.60;;;;;;;;;;699399;28;1819;-62
2024/03/04 00:59:50;;;;;;;42.28;24.50;;;;;;;;;;699958;28;955;-62
2024/03/04 01:00:14;;;;;;;42.87;24.40;;;;;;;;;;700299;28;1329;-62
2024/03/04 01:00:35;;;;;;;42.42;23.98;;;;;;;;;;698345;28;2214;-62
2024/03/04 01:00:57;;;;;;;43.35;25.58;;;;;;;;;;698620;28;994;-62
2024/03/04 01:01:17;;;;;;;44.60;25.83;;;;;;;;;;699474;28;1162;-62
2024/03/04 01:01:38;;;;;;;44.33;25.70;;;;;;;;;;696991;28;4561;-62
2024/03/04 01:01:58;;;;;;;44.43;24.50;;;;;;;;;;700412;28;1159;-63
2024/03/04 01:02:19;;;;;;;42.63;24.77;;;;;;;;;;699475;28;1351;-63
2024/03/04 01:02:39;;;;;;;40.95;24.90;;;;;;;;;;698689;28;2416;-62
2024/03/04 01:03:00;;;;;;;41.42;25.15;;;;;;;;;;698661;28;971;-62
2024/03/04 01:03:20;;;;;;;42.83;25.27;;;;;;;;;;700344;28;1241;-62
2024/03/04 01:03:40;;;;;;;40.70;23.75;;;;;;;;;;699148;28;1754;-63
2024/03/04 01:04:00;;;;;;;40.53;23.80;;;;;;;;;;700680;28;1049;-62
2024/03/04 01:04:21;;;;;;;42.17;24.53;;;;;;;;;;698565;28;824;-61
2024/03/04 01:04:43;;;;;;;43.00;25.97;;;;;;;;;;698837;28;4583;-63
2024/03/04 01:05:03;;;;;;;41.25;24.77;;;;;;;;;;702658;28;962;-62
2024/03/04 01:05:23;;;;;;;40.37;23.73;;;;;;;;;;701868;28;1192;-63
2024/03/04 01:05:44;;;;;;;41.20;24.13;;;;;;;;;;700373;28;2191;-63
2024/03/04 01:06:04;;;;;;;42.50;24.38;;;;;;;;;;701939;28;1085;-63
2024/03/04 01:06:27;;;;;;;43.10;24.57;;;;;;;;;;701836;28;994;-62
2024/03/04 01:06:51;;;;;;;41.60;24.40;;;;;;;;;;700769;28;1040;-63
2024/03/04 01:07:14;;;;;;;40.63;24.05;;;;;;;;;;702783;28;841;-62
2024/03/04 01:07:34;;;;;;;40.25;24.50;;;;;;;;;;700981;28;4499;-61
2024/03/04 01:07:55;;;;;;;40.87;25.00;;;;;;;;;;703281;28;916;-62
2024/03/04 01:08:15;;;;;;;38.67;24.67;;;;;;;;;;703177;28;1046;-62
2024/03/04 01:08:35;;;;;;;39.87;23.20;;;;;;;;;;701734;28;2222;-62
2024/03/04 01:08:56;;;;;;;40.10;23.48;;;;;;;;;;701488;28;840;-64
2024/03/04 01:09:16;;;;;;;41.27;24.10;;;;;;;;;;703404;28;853;-62
2024/03/04 01:09:37;;;;;;;41.17;23.93;;;;;;;;;;701180;28;2220;-63
2024/03/04 01:09:57;;;;;;;41.47;24.23;;;;;;;;;;702817;28;970;-62
2024/03/04 01:10:18;;;;;;;41.03;25.10;;;;;;;;;;701544;28;886;-62
2024/03/04 01:10:38;;;;;;;39.63;24.63;;;;;;;;;;700769;27;4432;-62
2024/03/04 01:10:58;;;;;;;38.78;23.35;;;;;;;;;;701788;28;814;-64
2024/03/04 01:11:18;;;;;;;41.30;23.83;;;;;;;;;;702988;28;920;-62
2024/03/04 01:11:39;;;;;;;41.60;23.93;;;;;;;;;;701679;28;2243;-65
2024/03/04 01:12:00;;;;;;;39.70;23.80;;;;;;;;;;702786;28;1384;-63
2024/03/04 01:12:21;;;;;;;39.00;23.08;;;;;;;;;;703018;28;1012;-64
2024/03/04 01:12:41;;;;;;;37.60;22.95;;;;;;;;;;701586;28;1852;-64
2024/03/04 01:13:02;;;;;;;38.97;23.33;;;;;;;;;;702060;28;915;-62
2024/03/04 01:13:23;;;;;;;40.45;23.42;;;;;;;;;;703108;28;853;-62
2024/03/04 01:13:43;;;;;;;41.33;23.45;;;;;;;;;;700963;27;4476;-63
2024/03/04 01:14:03;;;;;;;43.07;24.90;;;;;;;;;;703239;28;958;-62
2024/03/04 01:14:23;;;;;;;39.83;23.57;;;;;;;;;;702218;28;800;-62
2024/03/04 01:14:44;;;;;;;39.27;24.27;;;;;;;;;;701624;28;2552;-63
2024/03/04 01:15:05;;;;;;;39.50;23.97;;;;;;;;;;703800;28;1108;-63
2024/03/04 01:15:26;;;;;;;40.50;24.17;;;;;;;;;;702912;28;1656;-63
2024/03/04 01:15:49;;;;;;;40.93;24.37;;;;;;;;;;700112;28;1714;-66
2024/03/04 01:16:09;;;;;;;40.35;24.50;;;;;;;;;;701917;28;1098;-63
2024/03/04 01:16:31;;;;;;;39.50;23.97;;;;;;;;;;701688;28;2524;-62
2024/03/04 01:16:52;;;;;;;38.95;23.95;;;;;;;;;;701935;28;5285;-63
2024/03/04 01:17:16;;;;;;;36.05;23.52;;;;;;;;;;702675;28;948;-63
2024/03/04 01:17:36;;;;;;;37.92;22.92;;;;;;;;;;701587;28;2557;-63
2024/03/04 01:17:57;;;;;;;39.70;23.53;;;;;;;;;;702085;28;1139;-62
2024/03/04 01:18:17;;;;;;;39.80;24.20;;;;;;;;;;702822;28;961;-63
2024/03/04 01:18:37;;;;;;;40.88;24.35;;;;;;;;;;700774;28;1901;-63
2024/03/04 01:18:59;;;;;;;39.87;23.87;;;;;;;;;;703068;28;931;-62
2024/03/04 01:19:20;;;;;;;39.03;22.77;;;;;;;;;;702046;28;888;-63
2024/03/04 01:19:45;;;;;;;40.80;23.15;;;;;;;;;;698392;28;4530;-62
2024/03/04 01:20:09;;;;;;;39.97;23.10;;;;;;;;;;700932;28;1074;-63
2024/03/04 01:20:32;;;;;;;36.60;22.83;;;;;;;;;;697442;28;2573;-63
2024/03/04 01:20:54;;;;;;;38.55;23.80;;;;;;;;;;700468;28;924;-63
2024/03/04 01:21:14;;;;;;;35.90;22.85;;;;;;;;;;700271;28;999;-63
2024/03/04 01:21:38;;;;;;;36.58;22.10;;;;;;;;;;698314;28;1924;-63
2024/03/04 01:21:58;;;;;;;37.15;23.10;;;;;;;;;;699144;28;1322;-62
2024/03/04 01:22:18;;;;;;;38.67;22.77;;;;;;;;;;700145;28;945;-63
2024/03/04 01:22:39;;;;;;;37.90;22.50;;;;;;;;;;698576;28;4357;-62
2024/03/04 01:22:59;;;;;;;35.38;21.05;;;;;;;;;;700450;28;1843;-63
2024/03/04 01:23:20;;;;;;;36.30;22.07;;;;;;;;;;701112;28;777;-63
2024/03/04 01:23:40;;;;;;;35.93;22.57;;;;;;;;;;701132;28;1499;-62
2024/03/04 01:24:00;;;;;;;36.73;22.83;;;;;;;;;;703221;28;1188;-61
2024/03/04 01:24:20;;;;;;;36.85;21.40;;;;;;;;;;702979;28;931;-63
2024/03/04 01:24:41;;;;;;;35.60;21.47;;;;;;;;;;697731;28;1824;-63
2024/03/04 01:25:01;;;;;;;37.27;21.87;;;;;;;;;;702585;28;912;-63
2024/03/04 01:25:23;;;;;;;37.47;21.70;;;;;;;;;;703583;28;1017;-63
2024/03/04 01:25:44;;;;;;;38.42;22.38;;;;;;;;;;700858;28;4543;-63
2024/03/04 01:26:05;;;;;;;35.90;21.05;;;;;;;;;;702538;28;1092;-61
2024/03/04 01:26:26;;;;;;;35.92;21.40;;;;;;;;;;703207;28;1026;-64
2024/03/04 01:26:46;;;;;;;35.58;21.02;;;;;;;;;;700208;28;1858;-64
2024/03/04 01:27:06;;;;;;;35.77;21.33;;;;;;;;;;701754;28;955;-64
2024/03/04 01:27:27;;;;;;;34.37;21.03;;;;;;;;;;701377;28;840;-62
2024/03/04 01:27:47;;;;;;;34.88;21.10;;;;;;;;;;700230;27;2124;-63
2024/03/04 01:28:08;;;;;;;35.03;21.57;;;;;;;;;;702863;28;1026;-63
2024/03/04 01:28:28;;;;;;;34.38;21.10;;;;;;;;;;701820;28;922;-64
2024/03/04 01:28:49;;;;;;;36.00;21.25;;;;;;;;;;700235;28;4423;-63
2024/03/04 01:29:10;;;;;;;35.40;20.83;;;;;;;;;;702078;28;915;-64
2024/03/04 01:29:30;;;;;;;35.33;20.85;;;;;;;;;;701193;28;2087;-60
2024/03/04 01:29:50;;;;;;;36.13;22.30;;;;;;;;;;702159;28;808;-63
2024/03/04 01:30:13;;;;;;;35.60;22.00;;;;;;;;;;701368;28;1355;-63
2024/03/04 01:30:34;;;;;;;35.65;21.23;;;;;;;;;;702047;28;1750;-63
2024/03/04 01:30:55;;;;;;;35.73;21.20;;;;;;;;;;703675;28;968;-63
2024/03/04 01:31:18;;;;;;;35.55;22.05;;;;;;;;;;702222;28;879;-65
2024/03/04 01:31:38;;;;;;;35.05;22.15;;;;;;;;;;701350;27;4383;-63
2024/03/04 01:31:58;;;;;;;35.25;21.80;;;;;;;;;;702697;28;1077;-63
2024/03/04 01:32:22;;;;;;;35.17;21.00;;;;;;;;;;701529;28;1058;-63
2024/03/04 01:32:43;;;;;;;34.17;21.02;;;;;;;;;;701037;28;2329;-63
2024/03/04 01:33:06;;;;;;;33.57;20.67;;;;;;;;;;703064;28;793;-62
2024/03/04 01:33:26;;;;;;;34.95;20.60;;;;;;;;;;703607;28;986;-64
2024/03/04 01:33:49;;;;;;;34.40;21.27;;;;;;;;;;701439;28;1487;-61
2024/03/04 01:34:10;;;;;;;33.92;20.15;;;;;;;;;;702509;28;1005;-64
2024/03/04 01:34:30;;;;;;;35.73;21.47;;;;;;;;;;699909;28;2445;-62
2024/03/04 01:34:50;;;;;;;34.67;21.43;;;;;;;;;;702843;28;4352;-63
2024/03/04 01:35:11;;;;;;;33.60;21.37;;;;;;;;;;701942;28;964;-63
2024/03/04 01:35:32;;;;;;;35.72;21.80;;;;;;;;;;700327;28;2325;-62
2024/03/04 01:35:53;;;;;;;34.60;20.70;;;;;;;;;;702911;28;1058;-63
2024/03/04 01:36:13;;;;;;;35.17;20.77;;;;;;;;;;702503;28;1093;-66
2024/03/04 01:36:33;;;;;;;34.00;20.77;;;;;;;;;;701831;28;1892;-62
2024/03/04 01:36:53;;;;;;;32.63;20.48;;;;;;;;;;702540;28;816;-64
2024/03/04 01:37:14;;;;;;;33.10;20.57;;;;;;;;;;702068;28;978;-65
2024/03/04 01:37:34;;;;;;;35.40;21.80;;;;;;;;;;700675;27;4446;-62
2024/03/04 01:37:55;;;;;;;36.73;21.47;;;;;;;;;;702919;27;907;-63
2024/03/04 01:38:16;;;;;;;35.87;21.23;;;;;;;;;;703392;28;1115;-64
2024/03/04 01:38:36;;;;;;;33.80;20.88;;;;;;;;;;700439;28;1910;-63
2024/03/04 01:38:57;;;;;;;34.17;21.03;;;;;;;;;;702028;28;1196;-63
2024/03/04 01:39:18;;;;;;;32.00;19.80;;;;;;;;;;702735;28;1023;-62
2024/03/04 01:39:38;;;;;;;34.43;20.90;;;;;;;;;;700501;28;2479;-63
2024/03/04 01:39:58;;;;;;;34.57;20.87;;;;;;;;;;701635;28;1127;-63
2024/03/04 01:40:19;;;;;;;33.57;20.90;;;;;;;;;;703008;28;872;-62
2024/03/04 01:40:39;;;;;;;32.83;19.95;;;;;;;;;;700635;27;4372;-63
2024/03/04 01:41:00;;;;;;;36.10;21.23;;;;;;;;;;701744;28;1257;-63
2024/03/04 01:41:21;;;;;;;34.47;20.90;;;;;;;;;;698361;28;1572;-62
2024/03/04 01:41:41;;;;;;;35.67;21.52;;;;;;;;;;698789;28;3099;-63
2024/03/04 01:42:01;;;;;;;35.40;21.33;;;;;;;;;;699346;28;2002;-62
2024/03/04 01:42:22;;;;;;;32.20;20.20;;;;;;;;;;699407;28;986;-66
2024/03/04 01:42:42;;;;;;;32.40;19.90;;;;;;;;;;699012;28;1825;-63
2024/03/04 01:43:03;;;;;;;34.95;20.77;;;;;;;;;;702506;28;1062;-63
2024/03/04 01:43:23;;;;;;;35.20;20.70;;;;;;;;;;701897;28;818;-63
2024/03/04 01:43:43;;;;;;;32.70;20.43;;;;;;;;;;700267;28;4442;-64
2024/03/04 01:44:03;;;;;;;34.10;21.10;;;;;;;;;;702793;28;1246;-63
2024/03/04 01:44:30;;;;;;;33.83;20.97;;;;;;;;;;702293;28;943;-64
2024/03/04 01:44:51;;;;;;;33.22;20.83;;;;;;;;;;701859;27;1599;-63
2024/03/04 01:45:23;;;;;;;33.40;20.67;;;;;;;;;;701576;28;927;-64
2024/03/04 01:45:43;;;;;;;34.20;21.08;;;;;;;;;;700898;28;1675;-63
2024/03/04 01:46:03;;;;;;;35.87;21.17;;;;;;;;;;702646;28;1087;-63
2024/03/04 01:46:24;;;;;;;35.07;20.87;;;;;;;;;;701982;28;798;-64
2024/03/04 01:46:44;;;;;;;34.87;21.07;;;;;;;;;;701803;27;4332;-63
2024/03/04 01:47:07;;;;;;;34.13;21.37;;;;;;;;;;701774;28;1114;-64
2024/03/04 01:47:27;;;;;;;33.55;20.75;;;;;;;;;;702184;28;892;-63
2024/03/04 01:47:47;;;;;;;32.30;20.23;;;;;;;;;;702067;28;2527;-65
2024/03/04 01:48:09;;;;;;;31.93;20.47;;;;;;;;;;702989;28;1120;-64
2024/03/04 01:48:30;;;;;;;34.33;21.52;;;;;;;;;;702094;28;1017;-64
2024/03/04 01:48:51;;;;;;;37.58;20.88;;;;;;;;;;700386;28;2103;-64
2024/03/04 01:49:11;;;;;;;34.10;20.50;;;;;;;;;;702978;28;1001;-64
2024/03/04 01:49:34;;;;;;;32.88;20.90;;;;;;;;;;700590;27;5471;-63
2024/03/04 01:49:54;;;;;;;33.60;21.17;;;;;;;;;;703301;28;900;-64
2024/03/04 01:50:14;;;;;;;34.33;21.02;;;;;;;;;;702200;28;1272;-63
2024/03/04 01:50:36;;;;;;;31.43;20.07;;;;;;;;;;700731;28;2361;-63
2024/03/04 01:50:56;;;;;;;34.65;20.58;;;;;;;;;;701684;28;915;-63
2024/03/04 01:51:17;;;;;;;36.30;21.40;;;;;;;;;;702570;28;868;-63
2024/03/04 01:51:38;;;;;;;36.55;20.77;;;;;;;;;;701082;28;1194;-64
2024/03/04 01:51:58;;;;;;;36.97;21.13;;;;;;;;;;702976;28;1137;-64
2024/03/04 01:52:19;;;;;;;34.78;20.65;;;;;;;;;;703518;28;1223;-63
2024/03/04 01:52:40;;;;;;;32.58;20.10;;;;;;;;;;701285;27;4360;-64
2024/03/04 01:53:02;;;;;;;33.60;20.35;;;;;;;;;;702862;28;887;-63
2024/03/04 01:53:23;;;;;;;33.40;21.02;;;;;;;;;;701197;28;1089;-64
2024/03/04 01:53:44;;;;;;;33.92;20.50;;;;;;;;;;700844;28;2010;-64
2024/03/04 01:54:04;;;;;;;32.00;20.00;;;;;;;;;;702106;28;1101;-63
2024/03/04 01:54:24;;;;;;;33.30;20.30;;;;;;;;;;702644;28;876;-67
2024/03/04 01:54:46;;;;;;;33.78;20.40;;;;;;;;;;701913;28;2671;-64
2024/03/04 01:55:07;;;;;;;33.97;20.45;;;;;;;;;;700254;28;1160;-64
2024/03/04 01:55:30;;;;;;;33.60;20.05;;;;;;;;;;697441;28;1356;-63
2024/03/04 01:55:54;;;;;;;31.23;19.48;;;;;;;;;;696552;28;4319;-66
2024/03/04 01:56:15;;;;;;;31.92;19.33;;;;;;;;;;698954;28;1019;-64
2024/03/04 01:56:35;;;;;;;32.33;19.87;;;;;;;;;;698256;28;1948;-64
2024/03/04 01:56:56;;;;;;;32.78;19.80;;;;;;;;;;699090;28;1153;-64
2024/03/04 01:57:17;;;;;;;32.83;19.80;;;;;;;;;;701599;28;1129;-63
2024/03/04 01:57:37;;;;;;;32.63;18.80;;;;;;;;;;702343;28;1005;-63
2024/03/04 01:57:58;;;;;;;30.60;19.15;;;;;;;;;;703713;28;1084;-64
2024/03/04 01:58:19;;;;;;;32.00;19.97;;;;;;;;;;703533;28;1237;-64
2024/03/04 01:58:44;;;;;;;31.42;19.58;;;;;;;;;;700068;28;4677;-63
2024/03/04 01:59:04;;;;;;;31.65;19.10;;;;;;;;;;699013;28;1222;-63
2024/03/04 01:59:25;;;;;;;32.17;19.20;;;;;;;;;;698630;28;864;-63
2024/03/04 01:59:45;;;;;;;30.53;18.93;;;;;;;;;;698846;28;2434;-65
2024/03/04 02:00:11;;;;;;;33.70;19.92;;;;;;;;;;695400;28;1200;-64
2024/03/04 02:00:32;;;;;;;33.85;20.08;;;;;;;;;;696874;28;2523;-63
2024/03/04 02:00:54;;;;;;;33.42;20.05;;;;;;;;;;701481;28;1051;-64
2024/03/04 02:01:14;;;;;;;33.83;19.80;;;;;;;;;;698213;28;1078;-63
2024/03/04 02:01:36;;;;;;;32.33;19.77;;;;;;;;;;697243;28;5191;-65
2024/03/04 02:01:56;;;;;;;31.80;20.00;;;;;;;;;;695539;28;962;-63
2024/03/04 02:02:16;;;;;;;31.73;19.60;;;;;;;;;;697803;28;1349;-64
2024/03/04 02:02:40;;;;;;;32.60;20.08;;;;;;;;;;695934;28;1525;-64
2024/03/04 02:03:01;;;;;;;32.20;19.08;;;;;;;;;;697714;28;1007;-64
2024/03/04 02:03:22;;;;;;;31.58;19.00;;;;;;;;;;698025;28;971;-62
2024/03/04 02:03:44;;;;;;;30.35;19.55;;;;;;;;;;696358;28;1441;-64
2024/03/04 02:04:04;;;;;;;31.65;19.35;;;;;;;;;;699014;28;1087;-63
2024/03/04 02:04:24;;;;;;;33.13;19.92;;;;;;;;;;697753;28;876;-64
2024/03/04 02:04:45;;;;;;;32.10;19.53;;;;;;;;;;698602;28;4527;-63
2024/03/04 02:05:09;;;;;;;29.98;18.70;;;;;;;;;;700360;28;740;-64
2024/03/04 02:05:29;;;;;;;30.75;19.42;;;;;;;;;;699384;28;994;-63